sensor_id;sensor_type;location;lat;lon;timestamp;pressure;altitude;pressure_sealevel;temperature;humidity
40013;BME280;37387;42.672;23.334;2023-07-13T00:00:18;946.8;;;23.6;85.1
40013;BME280;37387;42.672;23.334;2023-07-13T00:03:18;946.8;;;23.7;85.0
40013;BME280;37387;42.672;23.334;2023-07-13T00:04:18;946.7;;;23.6;84.5
40013;BME280;37387;42.672;23.334;2023-07-13T00:07:17;946.8;;;23.5;85.5
40013;BME280;37387;42.672;23.334;2023-07-13T00:12:22;946.8;;;23.4;87.2
40013;BME280;37387;42.672;23.334;2023-07-13T00:14:18;946.8;;;23.3;87.8
40013;BME280;37387;42.672;23.334;2023-07-13T00:16:18;946.7;;;23.2;89.4
40013;BME280;37387;42.672;23.334;2023-07-13T00:19:18;946.7;;;23.1;89.8
40013;BME280;37387;42.672;23.334;2023-07-13T00:21:17;946.7;;;22.9;90.1
40013;BME280;37387;42.672;23.334;2023-07-13T00:22:18;946.7;;;22.8;91.7
40013;BME280;37387;42.672;23.334;2023-07-13T00:25:18;946.7;;;22.9;93.7
40013;BME280;37387;42.672;23.334;2023-07-13T00:26:18;946.7;;;22.8;94.1
40013;BME280;37387;42.672;23.334;2023-07-13T00:27:18;946.6;;;22.7;94.7
40013;BME280;37387;42.672;23.334;2023-07-13T00:28:18;946.7;;;22.6;94.8
40013;BME280;37387;42.672;23.334;2023-07-13T00:29:18;946.7;;;22.5;95.1
40013;BME280;37387;42.672;23.334;2023-07-13T00:32:18;946.6;;;22.4;99.1
40013;BME280;37387;42.672;23.334;2023-07-13T00:37:18;946.6;;;22.3;100.0
40013;BME280;37387;42.672;23.334;2023-07-13T00:46:21;946.6;;;22.1;100.0
40013;BME280;37387;42.672;23.334;2023-07-13T00:48:18;946.6;;;22.0;100.0
40013;BME280;37387;42.672;23.334;2023-07-13T00:53:18;946.7;;;21.9;100.0
40013;BME280;37387;42.672;23.334;2023-07-13T00:56:18;946.6;;;21.8;100.0
40013;BME280;37387;42.672;23.334;2023-07-13T00:57:18;946.6;;;21.6;100.0
40013;BME280;37387;42.672;23.334;2023-07-13T00:58:18;946.6;;;21.4;100.0
40013;BME280;37387;42.672;23.334;2023-07-13T01:02:18;946.6;;;21.5;100.0
40013;BME280;37387;42.672;23.334;2023-07-13T01:07:18;946.6;;;21.6;100.0
40013;BME280;37387;42.672;23.334;2023-07-13T01:12:18;946.5;;;21.7;100.0
40013;BME280;37387;42.672;23.334;2023-07-13T01:13:18;946.5;;;21.8;100.0
40013;BME280;37387;42.672;23.334;2023-07-13T01:14:18;946.6;;;21.9;100.0
40013;BME280;37387;42.672;23.334;2023-07-13T01:17:18;946.5;;;22.0;100.0
40013;BME280;37387;42.672;23.334;2023-07-13T01:18:18;946.5;;;22.1;100.0
40013;BME280;37387;42.672;23.334;2023-07-13T01:24:18;946.5;;;22.2;100.0
40013;BME280;37387;42.672;23.334;2023-07-13T01:26:18;946.5;;;22.1;100.0
40013;BME280;37387;42.672;23.334;2023-07-13T01:28:18;946.5;;;22.0;100.0
40013;BME280;37387;42.672;23.334;2023-07-13T01:33:18;946.5;;;21.9;100.0
40013;BME280;37387;42.672;23.334;2023-07-13T01:39:18;946.5;;;21.8;100.0
40013;BME280;37387;42.672;23.334;2023-07-13T01:42:18;946.5;;;21.5;100.0
40013;BME280;37387;42.672;23.334;2023-07-13T01:43:18;946.5;;;21.4;100.0
40013;BME280;37387;42.672;23.334;2023-07-13T01:45:18;946.5;;;21.3;100.0
40013;BME280;37387;42.672;23.334;2023-07-13T01:47:18;946.5;;;21.1;100.0
40013;BME280;37387;42.672;23.334;2023-07-13T01:48:18;946.4;;;20.9;100.0
40013;BME280;37387;42.672;23.334;2023-07-13T01:49:18;946.4;;;20.8;100.0
40013;BME280;37387;42.672;23.334;2023-07-13T01:51:18;946.4;;;20.9;100.0
40013;BME280;37387;42.672;23.334;2023-07-13T01:54:18;946.4;;;21.0;100.0
40013;BME280;37387;42.672;23.334;2023-07-13T02:02:18;946.5;;;21.1;100.0
40013;BME280;37387;42.672;23.334;2023-07-13T02:03:18;946.4;;;21.0;100.0
40013;BME280;37387;42.672;23.334;2023-07-13T02:11:18;946.5;;;20.9;100.0
40013;BME280;37387;42.672;23.334;2023-07-13T02:13:18;946.5;;;21.0;100.0
40013;BME280;37387;42.672;23.334;2023-07-13T02:17:18;946.6;;;21.1;100.0
40013;BME280;37387;42.672;23.334;2023-07-13T02:25:18;946.5;;;21.0;100.0
40013;BME280;37387;42.672;23.334;2023-07-13T02:37:18;946.6;;;20.9;100.0
40013;BME280;37387;42.672;23.334;2023-07-13T02:39:18;946.6;;;20.8;100.0
40013;BME280;37387;42.672;23.334;2023-07-13T02:40:18;946.6;;;20.7;100.0
40013;BME280;37387;42.672;23.334;2023-07-13T02:41:18;946.6;;;20.6;100.0
40013;BME280;37387;42.672;23.334;2023-07-13T02:44:18;946.6;;;20.5;100.0
40013;BME280;37387;42.672;23.334;2023-07-13T02:45:18;946.6;;;20.4;100.0
40013;BME280;37387;42.672;23.334;2023-07-13T02:48:18;946.6;;;20.5;100.0
40013;BME280;37387;42.672;23.334;2023-07-13T02:49:18;946.6;;;20.6;100.0
40013;BME280;37387;42.672;23.334;2023-07-13T02:50:18;946.6;;;20.7;100.0
40013;BME280;37387;42.672;23.334;2023-07-13T02:51:18;946.6;;;20.8;100.0
40013;BME280;37387;42.672;23.334;2023-07-13T02:57:18;946.6;;;20.7;100.0
40013;BME280;37387;42.672;23.334;2023-07-13T03:03:18;946.6;;;20.8;100.0
40013;BME280;37387;42.672;23.334;2023-07-13T03:04:18;946.7;;;20.9;100.0
40013;BME280;37387;42.672;23.334;2023-07-13T03:05:18;946.7;;;21.0;100.0
40013;BME280;37387;42.672;23.334;2023-07-13T03:06:18;946.7;;;21.1;100.0
40013;BME280;37387;42.672;23.334;2023-07-13T03:09:18;946.7;;;21.0;100.0
40013;BME280;37387;42.672;23.334;2023-07-13T03:10:18;946.7;;;21.1;100.0
40013;BME280;37387;42.672;23.334;2023-07-13T03:11:18;946.7;;;21.2;100.0
40013;BME280;37387;42.672;23.334;2023-07-13T03:12:18;946.7;;;21.3;100.0
40013;BME280;37387;42.672;23.334;2023-07-13T03:14:18;946.8;;;21.4;100.0
40013;BME280;37387;42.672;23.334;2023-07-13T03:17:18;946.8;;;21.5;100.0
40013;BME280;37387;42.672;23.334;2023-07-13T03:19:18;946.8;;;21.6;100.0
40013;BME280;37387;42.672;23.334;2023-07-13T03:21:18;946.8;;;21.5;100.0
40013;BME280;37387;42.672;23.334;2023-07-13T03:26:18;946.8;;;21.6;100.0
40013;BME280;37387;42.672;23.334;2023-07-13T03:27:18;946.8;;;21.7;100.0
40013;BME280;37387;42.672;23.334;2023-07-13T03:28:18;946.8;;;21.8;100.0
40013;BME280;37387;42.672;23.334;2023-07-13T03:29:18;946.8;;;21.9;100.0
40013;BME280;37387;42.672;23.334;2023-07-13T03:31:18;946.8;;;22.0;100.0
40013;BME280;37387;42.672;23.334;2023-07-13T03:33:18;946.9;;;22.2;100.0
40013;BME280;37387;42.672;23.334;2023-07-13T03:34:18;946.9;;;22.4;100.0
40013;BME280;37387;42.672;23.334;2023-07-13T03:35:18;946.9;;;22.6;100.0
40013;BME280;37387;42.672;23.334;2023-07-13T03:36:19;946.9;;;22.9;100.0
40013;BME280;37387;42.672;23.334;2023-07-13T03:37:18;946.9;;;23.2;100.0
40013;BME280;37387;42.672;23.334;2023-07-13T03:38:18;947.0;;;23.4;100.0
40013;BME280;37387;42.672;23.334;2023-07-13T03:39:18;947.0;;;23.6;100.0
40013;BME280;37387;42.672;23.334;2023-07-13T03:40:18;947.0;;;23.8;100.0
40013;BME280;37387;42.672;23.334;2023-07-13T03:42:18;947.0;;;24.0;100.0
40013;BME280;37387;42.672;23.334;2023-07-13T03:43:18;947.0;;;24.2;100.0
40013;BME280;37387;42.672;23.334;2023-07-13T03:44:18;947.0;;;24.4;100.0
40013;BME280;37387;42.672;23.334;2023-07-13T03:45:18;947.0;;;24.6;100.0
40013;BME280;37387;42.672;23.334;2023-07-13T03:46:18;947.0;;;24.8;100.0
40013;BME280;37387;42.672;23.334;2023-07-13T03:47:18;947.0;;;24.9;98.7
40013;BME280;37387;42.672;23.334;2023-07-13T03:48:18;947.0;;;25.1;96.8
40013;BME280;37387;42.672;23.334;2023-07-13T03:49:18;947.0;;;25.0;94.0
40013;BME280;37387;42.672;23.334;2023-07-13T03:50:18;947.0;;;25.1;94.8
40013;BME280;37387;42.672;23.334;2023-07-13T03:51:18;947.0;;;25.3;94.9
40013;BME280;37387;42.672;23.334;2023-07-13T03:52:18;947.0;;;25.6;92.5
40013;BME280;37387;42.672;23.334;2023-07-13T03:53:18;947.0;;;25.9;89.8
40013;BME280;37387;42.672;23.334;2023-07-13T03:54:18;947.0;;;25.7;87.1
40013;BME280;37387;42.672;23.334;2023-07-13T03:55:18;947.1;;;26.1;89.3
40013;BME280;37387;42.672;23.334;2023-07-13T03:56:18;947.1;;;26.5;82.6
40013;BME280;37387;42.672;23.334;2023-07-13T03:57:18;947.1;;;26.7;82.6
40013;BME280;37387;42.672;23.334;2023-07-13T03:58:27;947.1;;;26.5;79.9
40013;BME280;37387;42.672;23.334;2023-07-13T03:59:18;947.0;;;26.4;80.4
40013;BME280;37387;42.672;23.334;2023-07-13T04:00:18;947.0;;;26.8;81.8
40013;BME280;37387;42.672;23.334;2023-07-13T04:01:19;947.0;;;27.2;79.9
40013;BME280;37387;42.672;23.334;2023-07-13T04:02:18;947.0;;;27.0;76.3
40013;BME280;37387;42.672;23.334;2023-07-13T04:03:18;947.1;;;27.2;77.2
40013;BME280;37387;42.672;23.334;2023-07-13T04:04:18;947.1;;;27.4;76.4
40013;BME280;37387;42.672;23.334;2023-07-13T04:05:18;947.1;;;27.9;74.5
40013;BME280;37387;42.672;23.334;2023-07-13T04:06:19;947.1;;;28.0;72.0
40013;BME280;37387;42.672;23.334;2023-07-13T04:08:18;947.1;;;28.4;69.8
40013;BME280;37387;42.672;23.334;2023-07-13T04:09:18;947.0;;;28.5;67.5
40013;BME280;37387;42.672;23.334;2023-07-13T04:10:18;947.0;;;27.8;70.4
40013;BME280;37387;42.672;23.334;2023-07-13T04:11:18;946.9;;;27.7;70.4
40013;BME280;37387;42.672;23.334;2023-07-13T04:12:18;947.0;;;27.9;71.6
40013;BME280;37387;42.672;23.334;2023-07-13T04:14:18;947.0;;;28.3;70.4
40013;BME280;37387;42.672;23.334;2023-07-13T04:15:18;947.0;;;28.7;68.6
40013;BME280;37387;42.672;23.334;2023-07-13T04:16:18;947.0;;;28.4;66.5
40013;BME280;37387;42.672;23.334;2023-07-13T04:17:18;947.0;;;28.3;65.6
40013;BME280;37387;42.672;23.334;2023-07-13T04:18:18;947.0;;;27.9;66.2
40013;BME280;37387;42.672;23.334;2023-07-13T04:19:18;947.0;;;28.0;69.7
40013;BME280;37387;42.672;23.334;2023-07-13T04:20:18;947.0;;;27.8;69.7
40013;BME280;37387;42.672;23.334;2023-07-13T04:21:18;947.0;;;28.3;71.5
40013;BME280;37387;42.672;23.334;2023-07-13T04:22:18;947.1;;;28.0;67.5
40013;BME280;37387;42.672;23.334;2023-07-13T04:24:18;947.1;;;28.5;66.8
40013;BME280;37387;42.672;23.334;2023-07-13T04:25:18;947.2;;;28.4;65.8
40013;BME280;37387;42.672;23.334;2023-07-13T04:26:18;947.2;;;28.5;65.8
40013;BME280;37387;42.672;23.334;2023-07-13T04:27:18;947.2;;;29.0;66.7
40013;BME280;37387;42.672;23.334;2023-07-13T04:28:18;947.2;;;29.2;64.5
40013;BME280;37387;42.672;23.334;2023-07-13T04:29:18;947.2;;;29.1;62.4
40013;BME280;37387;42.672;23.334;2023-07-13T04:30:18;947.2;;;28.7;62.6
40013;BME280;37387;42.672;23.334;2023-07-13T04:31:18;947.2;;;28.8;63.5
40013;BME280;37387;42.672;23.334;2023-07-13T04:33:18;947.2;;;29.3;61.1
40013;BME280;37387;42.672;23.334;2023-07-13T04:34:18;947.2;;;29.6;59.5
40013;BME280;37387;42.672;23.334;2023-07-13T04:35:18;947.2;;;30.1;59.5
40013;BME280;37387;42.672;23.334;2023-07-13T04:37:18;947.2;;;29.9;54.7
40013;BME280;37387;42.672;23.334;2023-07-13T04:38:18;947.3;;;30.3;56.6
40013;BME280;37387;42.672;23.334;2023-07-13T04:39:18;947.2;;;30.7;55.8
40013;BME280;37387;42.672;23.334;2023-07-13T04:40:18;947.3;;;30.9;54.7
40013;BME280;37387;42.672;23.334;2023-07-13T04:41:18;947.3;;;30.8;54.0
40013;BME280;37387;42.672;23.334;2023-07-13T04:42:18;947.3;;;30.9;54.0
40013;BME280;37387;42.672;23.334;2023-07-13T04:43:18;947.3;;;31.1;54.2
40013;BME280;37387;42.672;23.334;2023-07-13T04:44:18;947.3;;;31.7;51.9
40013;BME280;37387;42.672;23.334;2023-07-13T04:45:18;947.3;;;31.9;51.9
40013;BME280;37387;42.672;23.334;2023-07-13T04:46:18;947.3;;;32.0;51.1
40013;BME280;37387;42.672;23.334;2023-07-13T04:47:18;947.3;;;32.6;50.9
40013;BME280;37387;42.672;23.334;2023-07-13T04:48:18;947.3;;;32.4;49.3
40013;BME280;37387;42.672;23.334;2023-07-13T04:49:18;947.4;;;31.2;49.7
40013;BME280;37387;42.672;23.334;2023-07-13T04:50:18;947.3;;;30.6;52.4
40013;BME280;37387;42.672;23.334;2023-07-13T04:51:18;947.3;;;30.8;54.7
40013;BME280;37387;42.672;23.334;2023-07-13T04:52:18;947.4;;;30.5;54.5
40013;BME280;37387;42.672;23.334;2023-07-13T04:53:18;947.3;;;30.3;55.5
40013;BME280;37387;42.672;23.334;2023-07-13T04:54:18;947.4;;;30.0;56.1
40013;BME280;37387;42.672;23.334;2023-07-13T04:55:18;947.4;;;30.3;57.6
40013;BME280;37387;42.672;23.334;2023-07-13T04:56:18;947.4;;;30.7;57.0
40013;BME280;37387;42.672;23.334;2023-07-13T04:57:18;947.5;;;30.4;55.6
40013;BME280;37387;42.672;23.334;2023-07-13T04:58:18;947.5;;;30.7;56.3
40013;BME280;37387;42.672;23.334;2023-07-13T04:59:18;947.5;;;30.5;55.8
40013;BME280;37387;42.672;23.334;2023-07-13T05:00:18;947.5;;;30.0;55.8
40013;BME280;37387;42.672;23.334;2023-07-13T05:01:18;947.5;;;30.4;56.6
40013;BME280;37387;42.672;23.334;2023-07-13T05:02:18;947.5;;;30.7;55.8
40013;BME280;37387;42.672;23.334;2023-07-13T05:03:18;947.5;;;30.2;54.8
40013;BME280;37387;42.672;23.334;2023-07-13T05:04:18;947.5;;;30.0;56.2
40013;BME280;37387;42.672;23.334;2023-07-13T05:05:18;947.5;;;29.9;57.0
40013;BME280;37387;42.672;23.334;2023-07-13T05:06:18;947.5;;;30.3;56.7
40013;BME280;37387;42.672;23.334;2023-07-13T05:07:18;947.5;;;31.0;55.8
40013;BME280;37387;42.672;23.334;2023-07-13T05:09:18;947.5;;;31.5;53.6
40013;BME280;37387;42.672;23.334;2023-07-13T05:10:18;947.6;;;31.7;52.6
40013;BME280;37387;42.672;23.334;2023-07-13T05:11:18;947.5;;;31.3;51.3
40013;BME280;37387;42.672;23.334;2023-07-13T05:12:18;947.5;;;31.1;52.6
40013;BME280;37387;42.672;23.334;2023-07-13T05:13:18;947.5;;;31.3;53.2
40013;BME280;37387;42.672;23.334;2023-07-13T05:14:18;947.5;;;31.4;52.9
40013;BME280;37387;42.672;23.334;2023-07-13T05:15:20;947.6;;;31.3;52.1
40013;BME280;37387;42.672;23.334;2023-07-13T05:16:18;947.6;;;31.2;52.5
40013;BME280;37387;42.672;23.334;2023-07-13T05:17:18;947.6;;;31.4;53.0
40013;BME280;37387;42.672;23.334;2023-07-13T05:18:18;947.7;;;32.0;52.4
40013;BME280;37387;42.672;23.334;2023-07-13T05:19:18;947.7;;;31.4;50.6
40013;BME280;37387;42.672;23.334;2023-07-13T05:20:18;947.7;;;31.6;52.4
40013;BME280;37387;42.672;23.334;2023-07-13T05:21:18;947.7;;;32.0;51.5
40013;BME280;37387;42.672;23.334;2023-07-13T05:22:18;947.7;;;32.2;50.4
40013;BME280;37387;42.672;23.334;2023-07-13T05:23:18;947.6;;;32.1;50.0
40013;BME280;37387;42.672;23.334;2023-07-13T05:24:18;947.6;;;31.6;50.2
40013;BME280;37387;42.672;23.334;2023-07-13T05:25:18;947.6;;;31.9;51.7
40013;BME280;37387;42.672;23.334;2023-07-13T05:26:18;947.6;;;31.2;51.3
40013;BME280;37387;42.672;23.334;2023-07-13T05:27:18;947.6;;;31.0;53.2
40013;BME280;37387;42.672;23.334;2023-07-13T05:28:18;947.6;;;30.2;53.2
40013;BME280;37387;42.672;23.334;2023-07-13T05:29:18;947.6;;;30.6;55.8
40013;BME280;37387;42.672;23.334;2023-07-13T05:30:18;947.6;;;31.5;54.4
40013;BME280;37387;42.672;23.334;2023-07-13T05:31:18;947.7;;;32.0;52.4
40013;BME280;37387;42.672;23.334;2023-07-13T05:32:18;947.6;;;32.9;51.0
40013;BME280;37387;42.672;23.334;2023-07-13T05:33:18;947.6;;;32.6;48.9
40013;BME280;37387;42.672;23.334;2023-07-13T05:34:18;947.6;;;32.0;49.6
40013;BME280;37387;42.672;23.334;2023-07-13T05:35:18;947.7;;;32.7;51.4
40013;BME280;37387;42.672;23.334;2023-07-13T05:36:18;947.7;;;32.9;50.1
40013;BME280;37387;42.672;23.334;2023-07-13T05:37:18;947.7;;;31.9;49.5
40013;BME280;37387;42.672;23.334;2023-07-13T05:38:18;947.7;;;32.6;52.0
40013;BME280;37387;42.672;23.334;2023-07-13T05:39:18;947.7;;;32.7;49.6
40013;BME280;37387;42.672;23.334;2023-07-13T05:40:18;947.7;;;31.2;53.0
40013;BME280;37387;42.672;23.334;2023-07-13T05:41:18;947.7;;;31.7;53.0
40013;BME280;37387;42.672;23.334;2023-07-13T05:43:18;947.7;;;30.9;51.1
40013;BME280;37387;42.672;23.334;2023-07-13T05:44:18;947.7;;;31.6;52.4
40013;BME280;37387;42.672;23.334;2023-07-13T05:45:18;947.7;;;31.8;52.4
40013;BME280;37387;42.672;23.334;2023-07-13T05:47:18;947.7;;;32.8;51.2
40013;BME280;37387;42.672;23.334;2023-07-13T05:48:18;947.7;;;33.1;49.3
40013;BME280;37387;42.672;23.334;2023-07-13T05:49:18;947.7;;;33.3;48.4
40013;BME280;37387;42.672;23.334;2023-07-13T05:50:18;947.7;;;32.2;47.8
40013;BME280;37387;42.672;23.334;2023-07-13T05:51:18;947.7;;;31.0;49.4
40013;BME280;37387;42.672;23.334;2023-07-13T05:52:18;947.7;;;30.6;52.3
40013;BME280;37387;42.672;23.334;2023-07-13T05:53:18;947.7;;;32.0;54.6
40013;BME280;37387;42.672;23.334;2023-07-13T05:54:18;947.7;;;33.0;50.9
40013;BME280;37387;42.672;23.334;2023-07-13T05:56:18;947.7;;;33.5;47.7
40013;BME280;37387;42.672;23.334;2023-07-13T05:57:18;947.7;;;32.9;47.6
40013;BME280;37387;42.672;23.334;2023-07-13T05:58:18;947.7;;;33.2;47.6
40013;BME280;37387;42.672;23.334;2023-07-13T05:59:18;947.7;;;32.9;46.6
40013;BME280;37387;42.672;23.334;2023-07-13T06:00:18;947.7;;;33.8;47.9
40013;BME280;37387;42.672;23.334;2023-07-13T06:01:18;947.7;;;34.0;45.3
40013;BME280;37387;42.672;23.334;2023-07-13T06:02:18;947.7;;;32.2;44.8
40013;BME280;37387;42.672;23.334;2023-07-13T06:03:18;947.7;;;32.9;47.9
40013;BME280;37387;42.672;23.334;2023-07-13T06:04:18;947.6;;;33.8;47.4
40013;BME280;37387;42.672;23.334;2023-07-13T06:05:18;947.6;;;33.7;45.6
40013;BME280;37387;42.672;23.334;2023-07-13T06:06:18;947.5;;;34.0;45.6
40013;BME280;37387;42.672;23.334;2023-07-13T06:07:18;947.5;;;33.4;45.3
40013;BME280;37387;42.672;23.334;2023-07-13T06:08:18;947.5;;;31.6;46.2
40013;BME280;37387;42.672;23.334;2023-07-13T06:09:18;947.5;;;31.3;49.1
40013;BME280;37387;42.672;23.334;2023-07-13T06:10:18;947.5;;;30.5;52.0
40013;BME280;37387;42.672;23.334;2023-07-13T06:11:18;947.5;;;31.1;54.1
40013;BME280;37387;42.672;23.334;2023-07-13T06:12:18;947.5;;;32.4;53.0
40013;BME280;37387;42.672;23.334;2023-07-13T06:13:18;947.6;;;33.3;50.3
40013;BME280;37387;42.672;23.334;2023-07-13T06:14:18;947.6;;;32.9;46.0
40013;BME280;37387;42.672;23.334;2023-07-13T06:15:18;947.6;;;33.6;46.3
40013;BME280;37387;42.672;23.334;2023-07-13T06:16:18;947.7;;;34.5;45.1
40013;BME280;37387;42.672;23.334;2023-07-13T06:17:18;947.7;;;35.0;44.2
40013;BME280;37387;42.672;23.334;2023-07-13T06:18:18;947.7;;;34.4;43.5
40013;BME280;37387;42.672;23.334;2023-07-13T06:20:18;947.7;;;33.3;43.0
40013;BME280;37387;42.672;23.334;2023-07-13T06:22:18;947.6;;;33.8;43.1
40013;BME280;37387;42.672;23.334;2023-07-13T06:23:18;947.7;;;34.4;43.2
40013;BME280;37387;42.672;23.334;2023-07-13T06:25:18;947.7;;;34.5;39.9
40013;BME280;37387;42.672;23.334;2023-07-13T06:26:18;947.7;;;35.3;41.2
40013;BME280;37387;42.672;23.334;2023-07-13T06:27:18;947.7;;;35.5;40.3
40013;BME280;37387;42.672;23.334;2023-07-13T06:28:18;947.7;;;35.8;40.2
40013;BME280;37387;42.672;23.334;2023-07-13T06:29:18;947.7;;;36.0;40.5
40013;BME280;37387;42.672;23.334;2023-07-13T06:30:18;947.7;;;34.8;40.0
40013;BME280;37387;42.672;23.334;2023-07-13T06:32:18;947.7;;;34.0;42.8
40013;BME280;37387;42.672;23.334;2023-07-13T06:34:18;947.7;;;34.6;43.7
40013;BME280;37387;42.672;23.334;2023-07-13T06:35:18;947.7;;;35.6;43.7
40013;BME280;37387;42.672;23.334;2023-07-13T06:36:18;947.7;;;36.6;41.4
40013;BME280;37387;42.672;23.334;2023-07-13T06:37:18;947.7;;;36.2;39.5
40013;BME280;37387;42.672;23.334;2023-07-13T06:38:18;947.7;;;36.8;40.6
40013;BME280;37387;42.672;23.334;2023-07-13T06:39:18;947.8;;;36.5;39.6
40013;BME280;37387;42.672;23.334;2023-07-13T06:40:18;947.8;;;35.9;39.7
40013;BME280;37387;42.672;23.334;2023-07-13T06:41:18;947.7;;;35.8;41.6
40013;BME280;37387;42.672;23.334;2023-07-13T06:42:18;947.7;;;36.3;41.3
40013;BME280;37387;42.672;23.334;2023-07-13T06:43:18;947.7;;;36.2;40.5
40013;BME280;37387;42.672;23.334;2023-07-13T06:47:18;947.6;;;36.9;39.6
40013;BME280;37387;42.672;23.334;2023-07-13T06:48:18;947.6;;;37.0;39.6
40013;BME280;37387;42.672;23.334;2023-07-13T06:49:18;947.7;;;36.8;39.0
40013;BME280;37387;42.672;23.334;2023-07-13T06:50:18;947.7;;;36.2;39.0
40013;BME280;37387;42.672;23.334;2023-07-13T06:51:18;947.6;;;35.9;38.8
40013;BME280;37387;42.672;23.334;2023-07-13T06:52:18;947.6;;;35.3;40.4
40013;BME280;37387;42.672;23.334;2023-07-13T06:53:18;947.6;;;36.0;40.4
40013;BME280;37387;42.672;23.334;2023-07-13T06:54:18;947.6;;;36.5;39.4
40013;BME280;37387;42.672;23.334;2023-07-13T06:55:18;947.6;;;36.6;38.3
40013;BME280;37387;42.672;23.334;2023-07-13T06:56:18;947.6;;;36.7;38.1
40013;BME280;37387;42.672;23.334;2023-07-13T06:57:18;947.6;;;37.2;38.1
40013;BME280;37387;42.672;23.334;2023-07-13T06:58:18;947.6;;;37.5;37.0
40013;BME280;37387;42.672;23.334;2023-07-13T06:59:18;947.6;;;37.3;36.6
40013;BME280;37387;42.672;23.334;2023-07-13T07:00:18;947.6;;;36.9;37.0
40013;BME280;37387;42.672;23.334;2023-07-13T07:01:18;947.6;;;37.4;35.1
40013;BME280;37387;42.672;23.334;2023-07-13T07:02:18;947.6;;;36.0;35.1
40013;BME280;37387;42.672;23.334;2023-07-13T07:03:18;947.6;;;36.7;37.4
40013;BME280;37387;42.672;23.334;2023-07-13T07:04:18;947.6;;;36.5;36.8
40013;BME280;37387;42.672;23.334;2023-07-13T07:05:18;947.7;;;36.4;37.7
40013;BME280;37387;42.672;23.334;2023-07-13T07:06:18;947.7;;;37.2;37.5
40013;BME280;37387;42.672;23.334;2023-07-13T07:08:18;947.6;;;36.4;35.3
40013;BME280;37387;42.672;23.334;2023-07-13T07:09:18;947.6;;;35.0;37.2
40013;BME280;37387;42.672;23.334;2023-07-13T07:10:18;947.6;;;34.9;39.5
40013;BME280;37387;42.672;23.334;2023-07-13T07:11:19;947.5;;;35.8;40.4
40013;BME280;37387;42.672;23.334;2023-07-13T07:12:18;947.6;;;36.0;38.5
40013;BME280;37387;42.672;23.334;2023-07-13T07:14:18;947.6;;;35.6;36.9
40013;BME280;37387;42.672;23.334;2023-07-13T07:15:18;947.6;;;36.0;37.4
40013;BME280;37387;42.672;23.334;2023-07-13T07:16:18;947.6;;;36.9;37.1
40013;BME280;37387;42.672;23.334;2023-07-13T07:17:18;947.6;;;36.5;36.0
40013;BME280;37387;42.672;23.334;2023-07-13T07:18:18;947.6;;;36.8;36.4
40013;BME280;37387;42.672;23.334;2023-07-13T07:19:18;947.6;;;37.1;36.5
40013;BME280;37387;42.672;23.334;2023-07-13T07:20:18;947.5;;;36.8;36.5
40013;BME280;37387;42.672;23.334;2023-07-13T07:21:18;947.6;;;36.6;37.1
40013;BME280;37387;42.672;23.334;2023-07-13T07:22:18;947.6;;;37.2;36.9
40013;BME280;37387;42.672;23.334;2023-07-13T07:23:18;947.6;;;37.1;36.9
40013;BME280;37387;42.672;23.334;2023-07-13T07:24:18;947.6;;;37.8;36.8
40013;BME280;37387;42.672;23.334;2023-07-13T07:25:18;947.6;;;36.0;36.2
40013;BME280;37387;42.672;23.334;2023-07-13T07:26:18;947.5;;;34.9;39.8
40013;BME280;37387;42.672;23.334;2023-07-13T07:27:18;947.5;;;35.9;39.8
40013;BME280;37387;42.672;23.334;2023-07-13T07:29:18;947.5;;;36.1;37.7
40013;BME280;37387;42.672;23.334;2023-07-13T07:30:18;947.5;;;36.7;36.8
40013;BME280;37387;42.672;23.334;2023-07-13T07:31:18;947.5;;;37.3;36.1
40013;BME280;37387;42.672;23.334;2023-07-13T07:32:18;947.6;;;36.6;35.5
40013;BME280;37387;42.672;23.334;2023-07-13T07:33:18;947.6;;;36.9;36.4
40013;BME280;37387;42.672;23.334;2023-07-13T07:34:18;947.6;;;37.3;36.4
40013;BME280;37387;42.672;23.334;2023-07-13T07:35:18;947.5;;;37.5;35.4
40013;BME280;37387;42.672;23.334;2023-07-13T07:36:18;947.5;;;37.6;35.1
40013;BME280;37387;42.672;23.334;2023-07-13T07:37:18;947.5;;;36.7;35.0
40013;BME280;37387;42.672;23.334;2023-07-13T07:38:18;947.4;;;35.7;36.9
40013;BME280;37387;42.672;23.334;2023-07-13T07:39:18;947.4;;;35.5;37.9
40013;BME280;37387;42.672;23.334;2023-07-13T07:40:18;947.4;;;36.3;38.6
40013;BME280;37387;42.672;23.334;2023-07-13T07:41:18;947.4;;;36.4;37.6
40013;BME280;37387;42.672;23.334;2023-07-13T07:42:18;947.4;;;37.0;37.4
40013;BME280;37387;42.672;23.334;2023-07-13T07:43:18;947.4;;;37.3;36.5
40013;BME280;37387;42.672;23.334;2023-07-13T07:44:18;947.3;;;37.1;36.0
40013;BME280;37387;42.672;23.334;2023-07-13T07:45:18;947.3;;;37.3;36.0
40013;BME280;37387;42.672;23.334;2023-07-13T07:46:18;947.3;;;37.2;36.3
40013;BME280;37387;42.672;23.334;2023-07-13T07:47:18;947.3;;;37.0;35.3
40013;BME280;37387;42.672;23.334;2023-07-13T07:49:18;947.3;;;36.7;35.5
40013;BME280;37387;42.672;23.334;2023-07-13T07:50:18;947.3;;;36.6;36.5
40013;BME280;37387;42.672;23.334;2023-07-13T07:51:18;947.3;;;37.0;36.5
40013;BME280;37387;42.672;23.334;2023-07-13T07:52:18;947.3;;;36.3;36.5
40013;BME280;37387;42.672;23.334;2023-07-13T07:53:18;947.4;;;35.9;36.8
40013;BME280;37387;42.672;23.334;2023-07-13T07:54:18;947.3;;;35.4;38.0
40013;BME280;37387;42.672;23.334;2023-07-13T07:55:18;947.3;;;36.1;38.0
40013;BME280;37387;42.672;23.334;2023-07-13T07:56:18;947.3;;;35.2;37.2
40013;BME280;37387;42.672;23.334;2023-07-13T07:58:18;947.3;;;34.5;38.8
40013;BME280;37387;42.672;23.334;2023-07-13T07:59:18;947.2;;;35.2;39.2
40013;BME280;37387;42.672;23.334;2023-07-13T08:00:18;947.2;;;35.6;39.2
40013;BME280;37387;42.672;23.334;2023-07-13T08:01:18;947.2;;;35.0;38.8
40013;BME280;37387;42.672;23.334;2023-07-13T08:02:18;947.1;;;34.7;39.6
40013;BME280;37387;42.672;23.334;2023-07-13T08:03:18;947.1;;;35.3;39.6
40013;BME280;37387;42.672;23.334;2023-07-13T08:04:18;947.1;;;35.4;39.1
40013;BME280;37387;42.672;23.334;2023-07-13T08:05:18;947.1;;;35.6;39.1
40013;BME280;37387;42.672;23.334;2023-07-13T08:06:18;947.1;;;34.7;38.5
40013;BME280;37387;42.672;23.334;2023-07-13T08:07:18;947.1;;;34.0;40.3
40013;BME280;37387;42.672;23.334;2023-07-13T08:08:18;947.0;;;35.0;41.8
40013;BME280;37387;42.672;23.334;2023-07-13T08:09:18;947.1;;;34.6;40.2
40013;BME280;37387;42.672;23.334;2023-07-13T08:10:18;947.0;;;34.4;41.2
40013;BME280;37387;42.672;23.334;2023-07-13T08:11:18;947.0;;;34.7;41.2
40013;BME280;37387;42.672;23.334;2023-07-13T08:12:18;947.0;;;35.0;40.8
40013;BME280;37387;42.672;23.334;2023-07-13T08:13:18;947.1;;;35.2;40.9